Time;durP1;ratioP1;P1;durP2;ratioP2;P2;SDS_P1;SDS_P2;PMS_P1;PMS_P2;Temp;Humidity;BMP_temperature;BMP_pressure;BME280_temperature;BME280_humidity;BME280_pressure;Samples;Min_cycle;Max_cycle;Signal;HPM_P1;HPM_P2
2022/10/08 00:02:20;;;;;;;19.63;10.52;;;;;;;;;;5052522;28;20517;-76
2022/10/08 00:04:46;;;;;;;20.40;10.15;;;;;;;;;;5051410;28;20112;-76
2022/10/08 00:07:11;;;;;;;16.20;9.73;;;;;;;;;;5052626;28;20025;-76
2022/10/08 00:09:36;;;;;;;21.50;10.52;;;;;;;;;;5051289;28;20039;-75
2022/10/08 00:12:01;;;;;;;19.90;9.55;;;;;;;;;;5052506;28;20455;-76
2022/10/08 00:14:27;;;;;;;20.77;10.05;;;;;;;;;;5052662;28;20021;-75
2022/10/08 00:16:52;;;;;;;19.02;9.45;;;;;;;;;;5051262;28;20035;-75
2022/10/08 00:19:17;;;;;;;18.70;10.07;;;;;;;;;;5052536;28;20100;-74
2022/10/08 00:21:44;;;;;;;17.83;9.35;;;;;;;;;;5052479;28;20036;-75
2022/10/08 00:24:13;;;;;;;18.77;9.10;;;;;;;;;;5052365;28;20036;-75
2022/10/08 00:26:39;;;;;;;17.13;9.52;;;;;;;;;;5051300;28;20071;-75
2022/10/08 00:29:06;;;;;;;22.15;10.07;;;;;;;;;;5051177;28;20023;-75
2022/10/08 00:31:34;;;;;;;17.80;9.70;;;;;;;;;;5052586;28;20355;-75
2022/10/08 00:34:03;;;;;;;18.85;9.45;;;;;;;;;;5051170;28;20049;-75
2022/10/08 00:36:30;;;;;;;17.13;9.93;;;;;;;;;;5052365;28;20021;-75
2022/10/08 00:39:02;;;;;;;17.90;10.07;;;;;;;;;;5052360;28;20100;-76
2022/10/08 00:41:31;;;;;;;19.67;9.63;;;;;;;;;;5052329;28;20474;-76
2022/10/08 00:43:58;;;;;;;19.05;9.82;;;;;;;;;;5052932;28;20036;-76
2022/10/08 00:46:36;;;;;;;20.35;9.68;;;;;;;;;;5056129;28;20024;-75
2022/10/08 00:49:05;;;;;;;17.67;9.30;;;;;;;;;;5056165;28;20474;-76
2022/10/08 00:51:32;;;;;;;20.55;9.85;;;;;;;;;;5054427;28;20040;-76
2022/10/08 00:54:00;;;;;;;20.70;10.00;;;;;;;;;;5054468;28;20094;-76
2022/10/08 00:56:26;;;;;;;18.10;10.20;;;;;;;;;;5055644;28;20370;-76
2022/10/08 00:58:52;;;;;;;17.38;9.82;;;;;;;;;;5054382;28;20025;-76
2022/10/08 01:01:17;;;;;;;23.60;10.05;;;;;;;;;;5055378;28;20052;-76
2022/10/08 01:03:42;;;;;;;21.33;9.23;;;;;;;;;;5056053;28;20079;-76
2022/10/08 01:06:19;;;;;;;20.25;10.30;;;;;;;;;;5055783;28;20025;-75
2022/10/08 01:08:56;;;;;;;16.63;10.10;;;;;;;;;;5055543;28;20113;-76
2022/10/08 01:11:46;;;;;;;21.17;9.90;;;;;;;;;;5054135;28;20017;-76
2022/10/08 01:14:32;;;;;;;21.10;9.93;;;;;;;;;;5055590;28;20099;-76
2022/10/08 01:17:29;;;;;;;18.20;10.23;;;;;;;;;;5055648;28;20040;-76
2022/10/08 01:20:20;;;;;;;15.32;9.27;;;;;;;;;;5054025;28;20036;-75
2022/10/08 01:23:05;;;;;;;19.10;10.00;;;;;;;;;;5055583;28;20072;-76
2022/10/08 01:25:50;;;;;;;21.08;9.98;;;;;;;;;;5055198;28;20028;-76
2022/10/08 01:28:40;;;;;;;23.00;9.90;;;;;;;;;;5055412;28;20036;-76
2022/10/08 01:31:26;;;;;;;21.63;10.20;;;;;;;;;;5055343;28;20375;-76
2022/10/08 01:33:57;;;;;;;22.92;10.00;;;;;;;;;;5053798;28;20082;-76
2022/10/08 01:36:24;;;;;;;19.02;10.32;;;;;;;;;;5054940;28;20021;-76
2022/10/08 01:38:56;;;;;;;19.77;10.13;;;;;;;;;;5054873;28;20531;-77
2022/10/08 01:41:24;;;;;;;18.05;9.95;;;;;;;;;;5055124;28;20033;-77
2022/10/08 01:43:57;;;;;;;24.33;9.95;;;;;;;;;;5053480;28;20116;-77
2022/10/08 01:46:26;;;;;;;16.63;9.88;;;;;;;;;;5054903;28;20021;-77
2022/10/08 01:48:56;;;;;;;19.80;10.23;;;;;;;;;;5054704;28;20398;-76
2022/10/08 01:51:56;;;;;;;20.73;10.43;;;;;;;;;;5054578;28;20021;-76
2022/10/08 01:54:25;;;;;;;22.27;9.73;;;;;;;;;;5047519;28;20041;-77
2022/10/08 01:56:52;;;;;;;19.15;10.38;;;;;;;;;;5052341;28;20029;-77
2022/10/08 01:59:24;;;;;;;18.02;9.82;;;;;;;;;;5054672;28;20032;-76
2022/10/08 02:02:22;;;;;;;27.42;10.57;;;;;;;;;;5053025;28;20028;-77
2022/10/08 02:04:50;;;;;;;18.20;10.00;;;;;;;;;;5049693;28;20056;-76
2022/10/08 02:07:17;;;;;;;19.45;10.10;;;;;;;;;;5054432;28;20029;-76
2022/10/08 02:09:45;;;;;;;20.05;10.02;;;;;;;;;;5054332;28;20021;-76
2022/10/08 02:12:11;;;;;;;18.83;9.13;;;;;;;;;;5054191;28;20028;-77
2022/10/08 02:14:41;;;;;;;20.27;10.77;;;;;;;;;;5054241;28;20021;-76
2022/10/08 02:17:23;;;;;;;26.50;10.35;;;;;;;;;;5054182;28;20494;-76
2022/10/08 02:20:01;;;;;;;18.88;9.80;;;;;;;;;;5054391;28;20028;-76
2022/10/08 02:22:34;;;;;;;21.48;9.90;;;;;;;;;;5054032;28;20044;-76
2022/10/08 02:25:09;;;;;;;18.35;10.10;;;;;;;;;;5054126;28;20029;-76
2022/10/08 02:27:48;;;;;;;21.27;10.30;;;;;;;;;;5054612;28;20033;-76
2022/10/08 02:30:13;;;;;;;20.83;9.95;;;;;;;;;;5052618;28;20494;-76
2022/10/08 02:33:01;;;;;;;20.55;10.52;;;;;;;;;;5054257;28;20055;-76
2022/10/08 02:35:51;;;;;;;19.77;10.38;;;;;;;;;;5052712;28;20029;-76
2022/10/08 02:38:26;;;;;;;18.83;10.30;;;;;;;;;;5053370;28;20037;-76
2022/10/08 02:40:56;;;;;;;19.42;10.70;;;;;;;;;;5052470;28;20082;-76
2022/10/08 02:43:26;;;;;;;19.80;10.23;;;;;;;;;;5052426;28;20049;-76
2022/10/08 02:46:08;;;;;;;20.98;10.68;;;;;;;;;;5052441;28;20056;-76
2022/10/08 02:48:35;;;;;;;20.90;10.82;;;;;;;;;;5053941;28;20025;-76
2022/10/08 02:51:09;;;;;;;22.25;10.88;;;;;;;;;;5053596;28;20043;-76
2022/10/08 02:53:36;;;;;;;;;;;;;;;;;;5054073;28;20124;-76
2022/10/08 02:56:09;;;;;;;19.80;9.93;;;;;;;;;;5053502;28;19915;-76
2022/10/08 02:58:35;;;;;;;19.45;10.32;;;;;;;;;;5054052;28;20367;-76
2022/10/08 03:01:17;;;;;;;21.80;11.00;;;;;;;;;;5053211;28;20032;-76
2022/10/08 03:03:50;;;;;;;20.73;10.18;;;;;;;;;;5053681;28;20225;-76
2022/10/08 03:06:17;;;;;;;21.25;10.65;;;;;;;;;;5053696;28;20474;-76
2022/10/08 03:08:47;;;;;;;16.98;10.30;;;;;;;;;;5051914;28;20033;-76
2022/10/08 03:11:14;;;;;;;20.38;9.85;;;;;;;;;;5053170;28;20112;-77
2022/10/08 03:13:47;;;;;;;21.85;10.30;;;;;;;;;;5053192;28;20478;-76
2022/10/08 03:16:15;;;;;;;20.73;10.82;;;;;;;;;;5053373;28;20056;-76
2022/10/08 03:18:42;;;;;;;18.60;11.20;;;;;;;;;;5053542;28;20079;-77
2022/10/08 03:21:11;;;;;;;19.23;10.32;;;;;;;;;;5051871;28;20024;-76
2022/10/08 03:23:37;;;;;;;19.38;10.63;;;;;;;;;;5051764;28;20021;-76
2022/10/08 03:26:02;;;;;;;19.65;10.05;;;;;;;;;;5052062;28;20032;-76
2022/10/08 03:28:27;;;;;;;17.63;9.93;;;;;;;;;;5053546;28;20383;-77
2022/10/08 03:30:53;;;;;;;21.52;10.57;;;;;;;;;;5053007;28;20151;-77
2022/10/08 03:33:18;;;;;;;18.30;10.35;;;;;;;;;;5053307;28;20025;-77
2022/10/08 03:35:46;;;;;;;21.33;10.13;;;;;;;;;;5052984;28;20107;-76
2022/10/08 03:38:16;;;;;;;20.95;10.90;;;;;;;;;;5052889;28;20066;-76
2022/10/08 03:40:42;;;;;;;18.35;10.70;;;;;;;;;;5053351;28;20017;-76
2022/10/08 03:43:07;;;;;;;17.30;10.20;;;;;;;;;;5052790;28;20083;-76
2022/10/08 03:45:33;;;;;;;22.30;11.43;;;;;;;;;;5052902;28;20032;-76
2022/10/08 03:47:58;;;;;;;21.65;10.45;;;;;;;;;;5052820;28;20025;-76
2022/10/08 03:50:24;;;;;;;17.77;10.30;;;;;;;;;;5051485;28;20020;-76
2022/10/08 03:52:49;;;;;;;19.45;10.48;;;;;;;;;;5052991;28;20331;-77
2022/10/08 03:55:14;;;;;;;19.77;10.35;;;;;;;;;;5051474;28;20157;-76
2022/10/08 03:57:40;;;;;;;21.33;11.30;;;;;;;;;;5052685;28;20501;-76
2022/10/08 04:00:06;;;;;;;22.13;10.80;;;;;;;;;;5052672;28;20039;-76
2022/10/08 04:02:31;;;;;;;22.60;10.57;;;;;;;;;;5052631;28;20033;-76
2022/10/08 04:04:56;;;;;;;33.47;11.23;;;;;;;;;;5051465;28;20051;-76
2022/10/08 04:07:22;;;;;;;20.85;10.73;;;;;;;;;;5053017;28;20462;-76
2022/10/08 04:09:47;;;;;;;20.15;11.02;;;;;;;;;;5051378;28;20024;-76
2022/10/08 04:12:12;;;;;;;21.30;11.13;;;;;;;;;;5052476;28;20028;-76
2022/10/08 04:14:37;;;;;;;24.40;10.80;;;;;;;;;;5051338;28;20035;-77
2022/10/08 04:17:03;;;;;;;23.17;11.45;;;;;;;;;;5051281;28;20496;-76
2022/10/08 04:19:28;;;;;;;19.52;11.20;;;;;;;;;;5054413;28;20024;-76
2022/10/08 04:21:53;;;;;;;22.95;10.63;;;;;;;;;;5055100;28;20056;-76
2022/10/08 04:24:18;;;;;;;23.23;11.25;;;;;;;;;;5056482;28;20395;-76
2022/10/08 04:26:44;;;;;;;26.05;10.93;;;;;;;;;;5055003;28;20044;-76
2022/10/08 04:29:11;;;;;;;19.77;11.07;;;;;;;;;;5056775;28;20104;-76
2022/10/08 04:31:37;;;;;;;22.55;11.90;;;;;;;;;;5056126;28;20027;-76
2022/10/08 04:34:02;;;;;;;24.02;11.00;;;;;;;;;;5056515;28;20026;-76
2022/10/08 04:36:27;;;;;;;21.35;11.60;;;;;;;;;;5056083;28;20029;-76
2022/10/08 04:38:53;;;;;;;17.75;10.77;;;;;;;;;;5056134;28;20025;-76
2022/10/08 04:41:21;;;;;;;19.60;11.50;;;;;;;;;;5055953;28;20390;-76
2022/10/08 04:43:46;;;;;;;19.55;11.65;;;;;;;;;;5054615;28;20033;-76
2022/10/08 04:46:14;;;;;;;17.65;11.05;;;;;;;;;;5054737;28;20139;-76
2022/10/08 04:48:45;;;;;;;23.15;11.15;;;;;;;;;;5055911;28;20470;-76
2022/10/08 04:51:10;;;;;;;23.25;11.23;;;;;;;;;;5054554;28;20025;-77
2022/10/08 04:53:36;;;;;;;22.08;11.68;;;;;;;;;;5056028;28;20025;-76
2022/10/08 04:56:12;;;;;;;18.67;11.63;;;;;;;;;;5055830;28;20032;-76
2022/10/08 04:58:37;;;;;;;21.52;10.90;;;;;;;;;;5055725;28;20103;-76
2022/10/08 05:01:05;;;;;;;24.17;11.07;;;;;;;;;;5055522;28;20067;-76
2022/10/08 05:03:31;;;;;;;23.98;12.07;;;;;;;;;;5055634;28;20394;-76
2022/10/08 05:05:56;;;;;;;20.33;11.43;;;;;;;;;;5055715;28;20024;-76
2022/10/08 05:08:21;;;;;;;27.17;12.02;;;;;;;;;;5055657;28;20032;-77
2022/10/08 05:10:48;;;;;;;23.27;13.13;;;;;;;;;;5054315;28;20482;-78
2022/10/08 05:13:13;;;;;;;26.45;12.98;;;;;;;;;;5054256;28;20025;-77
2022/10/08 05:15:38;;;;;;;23.23;13.10;;;;;;;;;;5055495;28;20047;-76
2022/10/08 05:18:04;;;;;;;19.10;11.50;;;;;;;;;;5055399;28;20025;-76
2022/10/08 05:20:29;;;;;;;22.30;12.25;;;;;;;;;;5053972;28;20100;-76
2022/10/08 05:22:54;;;;;;;23.50;12.30;;;;;;;;;;5053997;28;20021;-76
2022/10/08 05:25:19;;;;;;;23.35;12.10;;;;;;;;;;5055474;28;20021;-76
2022/10/08 05:27:45;;;;;;;21.40;11.90;;;;;;;;;;5055282;28;20035;-76
2022/10/08 05:30:10;;;;;;;25.48;12.18;;;;;;;;;;5053756;28;20478;-76
2022/10/08 05:32:35;;;;;;;25.15;12.55;;;;;;;;;;5055101;28;20382;-76
2022/10/08 05:35:00;;;;;;;21.90;11.98;;;;;;;;;;5055118;28;20021;-76
2022/10/08 05:37:26;;;;;;;35.55;12.43;;;;;;;;;;5054956;28;20123;-76
2022/10/08 05:39:51;;;;;;;25.23;13.18;;;;;;;;;;5055106;28;20036;-75
2022/10/08 05:42:16;;;;;;;28.67;12.40;;;;;;;;;;5054797;28;20021;-76
2022/10/08 05:44:41;;;;;;;21.00;11.77;;;;;;;;;;5054832;28;20032;-76
2022/10/08 05:47:07;;;;;;;24.02;13.10;;;;;;;;;;5054778;28;20526;-76
2022/10/08 05:49:32;;;;;;;22.48;11.68;;;;;;;;;;5053525;28;20024;-76
2022/10/08 05:51:57;;;;;;;25.30;12.32;;;;;;;;;;5054744;28;20020;-77
2022/10/08 05:54:23;;;;;;;26.27;13.30;;;;;;;;;;5054746;28;20017;-77
2022/10/08 05:56:48;;;;;;;28.88;14.18;;;;;;;;;;5054576;28;20025;-76
2022/10/08 05:59:22;;;;;;;25.10;13.32;;;;;;;;;;5055125;28;20048;-76
2022/10/08 06:01:48;;;;;;;22.23;12.93;;;;;;;;;;5054326;28;20490;-76
2022/10/08 06:04:13;;;;;;;24.95;13.50;;;;;;;;;;5054590;28;20044;-77
2022/10/08 06:06:40;;;;;;;28.17;13.82;;;;;;;;;;5054544;28;20392;-77
2022/10/08 06:09:07;;;;;;;25.58;13.77;;;;;;;;;;5054675;28;20021;-76
2022/10/08 06:11:34;;;;;;;22.17;13.30;;;;;;;;;;5054226;28;20103;-76
2022/10/08 06:14:00;;;;;;;22.17;12.80;;;;;;;;;;5054166;28;20370;-76
2022/10/08 06:16:27;;;;;;;24.38;13.07;;;;;;;;;;5052763;28;20032;-77
2022/10/08 06:18:53;;;;;;;27.58;14.18;;;;;;;;;;5054628;28;20024;-75
2022/10/08 06:21:21;;;;;;;28.65;13.45;;;;;;;;;;5054463;28;20086;-76
2022/10/08 06:23:49;;;;;;;25.98;12.55;;;;;;;;;;5054190;28;20035;-77
2022/10/08 06:26:16;;;;;;;20.13;12.45;;;;;;;;;;5054043;28;20119;-77
2022/10/08 06:28:42;;;;;;;24.95;12.80;;;;;;;;;;5054015;28;20025;-76
2022/10/08 06:31:07;;;;;;;26.38;12.30;;;;;;;;;;5053909;28;20067;-76
2022/10/08 06:33:33;;;;;;;26.00;12.02;;;;;;;;;;5052749;28;20184;-76
2022/10/08 06:36:17;;;;;;;25.90;13.05;;;;;;;;;;5053936;28;20017;-76
2022/10/08 06:38:47;;;;;;;;;;;;;;;;;;5054177;28;20501;-76
2022/10/08 06:41:12;;;;;;;28.73;12.25;;;;;;;;;;5053718;28;20266;-77
2022/10/08 06:43:38;;;;;;;20.77;12.27;;;;;;;;;;5053797;28;20027;-76
2022/10/08 06:46:05;;;;;;;22.38;12.73;;;;;;;;;;5054031;28;20024;-76
2022/10/08 06:48:31;;;;;;;23.27;12.95;;;;;;;;;;5052737;28;20478;-75
2022/10/08 06:51:03;;;;;;;24.50;12.30;;;;;;;;;;5053950;28;20032;-76
2022/10/08 06:53:29;;;;;;;24.77;11.88;;;;;;;;;;5054180;28;20165;-76
2022/10/08 06:55:59;;;;;;;27.48;12.75;;;;;;;;;;5054069;28;20064;-76
2022/10/08 06:58:25;;;;;;;22.13;11.70;;;;;;;;;;5053275;28;20028;-77
2022/10/08 07:01:00;;;;;;;23.67;12.07;;;;;;;;;;5052348;28;20032;-76
2022/10/08 07:03:26;;;;;;;28.13;12.40;;;;;;;;;;5054281;28;20100;-77
2022/10/08 07:05:51;;;;;;;20.08;11.68;;;;;;;;;;5053760;28;20059;-77
2022/10/08 07:08:16;;;;;;;22.38;12.55;;;;;;;;;;5052589;28;20037;-76
2022/10/08 07:10:41;;;;;;;24.50;12.52;;;;;;;;;;5052380;28;20474;-76
2022/10/08 07:13:07;;;;;;;22.02;11.20;;;;;;;;;;5053947;28;20125;-77
2022/10/08 07:15:32;;;;;;;27.02;13.05;;;;;;;;;;5053777;28;20450;-76
2022/10/08 07:17:57;;;;;;;22.88;12.77;;;;;;;;;;5053487;28;20047;-75
2022/10/08 07:20:22;;;;;;;26.73;12.68;;;;;;;;;;5053330;28;20056;-75
2022/10/08 07:22:48;;;;;;;31.33;12.63;;;;;;;;;;5052955;28;20390;-75
2022/10/08 07:25:13;;;;;;;25.77;12.82;;;;;;;;;;5051762;28;20021;-76
2022/10/08 07:27:38;;;;;;;26.48;13.10;;;;;;;;;;5051702;28;20052;-76
2022/10/08 07:30:04;;;;;;;22.92;12.65;;;;;;;;;;5052881;28;20402;-76
2022/10/08 07:32:29;;;;;;;21.27;12.65;;;;;;;;;;5052903;28;20059;-76
2022/10/08 07:34:54;;;;;;;20.33;11.88;;;;;;;;;;5051619;28;20029;-74
2022/10/08 07:37:19;;;;;;;26.30;11.00;;;;;;;;;;5053024;28;20024;-75
2022/10/08 07:39:45;;;;;;;28.10;10.70;;;;;;;;;;5052889;28;20033;-75
2022/10/08 07:42:10;;;;;;;26.90;9.25;;;;;;;;;;5052850;28;20024;-76
2022/10/08 07:44:35;;;;;;;18.58;9.43;;;;;;;;;;5051834;28;20444;-77
2022/10/08 07:47:01;;;;;;;14.60;8.35;;;;;;;;;;5053182;28;20064;-76
2022/10/08 07:49:26;;;;;;;17.05;7.88;;;;;;;;;;5053400;28;20028;-76
2022/10/08 07:51:51;;;;;;;10.10;5.80;;;;;;;;;;5052748;28;20020;-77
2022/10/08 07:54:18;;;;;;;9.93;4.53;;;;;;;;;;5054266;28;20020;-76
2022/10/08 07:56:44;;;;;;;10.32;4.38;;;;;;;;;;5056874;28;20030;-76
2022/10/08 07:59:13;;;;;;;6.55;3.92;;;;;;;;;;5056106;28;20482;-76
2022/10/08 08:01:40;;;;;;;7.47;3.50;;;;;;;;;;5056871;28;20024;-76
2022/10/08 08:04:07;;;;;;;10.63;3.38;;;;;;;;;;5057579;28;20107;-77
2022/10/08 08:06:37;;;;;;;12.45;3.17;;;;;;;;;;5056750;28;20029;-76
2022/10/08 08:09:02;;;;;;;6.10;3.15;;;;;;;;;;5056745;28;20031;-75
2022/10/08 08:11:28;;;;;;;8.65;2.70;;;;;;;;;;5056879;28;20103;-76
2022/10/08 08:13:53;;;;;;;6.40;2.78;;;;;;;;;;5056546;28;20494;-77
2022/10/08 08:16:24;;;;;;;10.35;2.80;;;;;;;;;;5056826;28;20021;-76
2022/10/08 08:18:52;;;;;;;17.83;2.92;;;;;;;;;;5056748;28;20074;-77
2022/10/08 08:21:22;;;;;;;11.82;2.70;;;;;;;;;;5056546;28;20029;-76
2022/10/08 08:23:50;;;;;;;9.88;2.83;;;;;;;;;;5056856;28;20029;-76
2022/10/08 08:26:21;;;;;;;16.42;3.05;;;;;;;;;;5056449;28;20021;-76
2022/10/08 08:28:52;;;;;;;13.30;2.63;;;;;;;;;;5056732;28;20028;-77
2022/10/08 08:31:23;;;;;;;9.15;2.63;;;;;;;;;;5056428;28;20052;-77
2022/10/08 08:33:50;;;;;;;10.32;2.70;;;;;;;;;;5056514;28;20428;-77
2022/10/08 08:36:17;;;;;;;10.65;3.20;;;;;;;;;;5056490;28;20053;-77
2022/10/08 08:38:43;;;;;;;5.60;2.60;;;;;;;;;;5056125;28;20106;-77
2022/10/08 08:41:26;;;;;;;11.82;2.80;;;;;;;;;;5056311;28;20053;-76
2022/10/08 08:44:23;;;;;;;10.70;2.80;;;;;;;;;;5056135;28;20053;-76
2022/10/08 08:47:06;;;;;;;6.07;2.55;;;;;;;;;;5056460;28;20021;-78
2022/10/08 08:49:33;;;;;;;10.82;2.65;;;;;;;;;;5054730;28;20025;-76
2022/10/08 08:52:00;;;;;;;5.95;2.70;;;;;;;;;;5056152;28;20389;-77
2022/10/08 08:54:26;;;;;;;7.95;2.80;;;;;;;;;;5056060;28;20025;-77
2022/10/08 08:56:52;;;;;;;6.15;2.35;;;;;;;;;;5055991;28;20100;-76
2022/10/08 08:59:36;;;;;;;9.70;2.88;;;;;;;;;;5056078;28;20024;-77
2022/10/08 09:02:10;;;;;;;10.30;2.80;;;;;;;;;;5054477;28;20025;-76
2022/10/08 09:04:43;;;;;;;11.65;2.45;;;;;;;;;;5055641;28;20429;-77
2022/10/08 09:07:13;;;;;;;6.20;2.30;;;;;;;;;;5055699;28;20024;-76
2022/10/08 09:09:45;;;;;;;13.45;2.75;;;;;;;;;;5054377;28;20124;-76
2022/10/08 09:12:32;;;;;;;8.60;2.40;;;;;;;;;;5054241;28;20016;-76
2022/10/08 09:14:59;;;;;;;6.70;2.22;;;;;;;;;;5055754;28;20020;-76
2022/10/08 09:17:37;;;;;;;10.80;2.40;;;;;;;;;;5055425;28;20033;-76
2022/10/08 09:20:03;;;;;;;6.50;2.38;;;;;;;;;;5055597;28;20483;-76
2022/10/08 09:22:37;;;;;;;6.70;2.45;;;;;;;;;;5053811;28;20120;-77
2022/10/08 09:25:09;;;;;;;7.15;2.58;;;;;;;;;;5055250;28;20021;-77
2022/10/08 09:27:46;;;;;;;9.27;2.50;;;;;;;;;;5055384;28;20040;-75
2022/10/08 09:30:27;;;;;;;5.05;2.28;;;;;;;;;;5055207;28;20028;-76
2022/10/08 09:32:54;;;;;;;11.80;2.28;;;;;;;;;;5055516;28;20100;-77
2022/10/08 09:35:19;;;;;;;8.73;2.75;;;;;;;;;;5055108;28;20053;-76
2022/10/08 09:37:46;;;;;;;7.00;2.55;;;;;;;;;;5055184;28;20036;-77
2022/10/08 09:40:11;;;;;;;12.55;2.35;;;;;;;;;;5055005;28;20075;-76
2022/10/08 09:42:37;;;;;;;7.47;2.30;;;;;;;;;;5053767;28;20029;-76
2022/10/08 09:45:23;;;;;;;9.50;2.55;;;;;;;;;;5055212;28;20025;-76
2022/10/08 09:48:16;;;;;;;9.02;2.00;;;;;;;;;;5055777;28;20068;-76
2022/10/08 09:51:02;;;;;;;8.43;2.15;;;;;;;;;;5055019;28;20020;-76
2022/10/08 09:53:37;;;;;;;9.18;2.17;;;;;;;;;;5053628;28;20032;-77
2022/10/08 09:56:05;;;;;;;10.40;2.22;;;;;;;;;;5055336;28;20029;-77
2022/10/08 09:58:34;;;;;;;6.82;2.40;;;;;;;;;;5055264;28;20423;-76
2022/10/08 10:01:03;;;;;;;8.18;2.38;;;;;;;;;;5053538;28;20036;-76
2022/10/08 10:03:29;;;;;;;8.32;2.50;;;;;;;;;;5054471;28;20036;-78
2022/10/08 10:05:57;;;;;;;7.82;2.30;;;;;;;;;;5054652;28;20021;-76
2022/10/08 10:08:47;;;;;;;7.20;2.20;;;;;;;;;;5053416;28;20029;-77
2022/10/08 10:11:19;;;;;;;13.45;2.17;;;;;;;;;;5025875;28;20478;-77
2022/10/08 10:13:47;;;;;;;7.43;2.25;;;;;;;;;;5054816;28;20478;-75
2022/10/08 10:16:27;;;;;;;6.38;2.35;;;;;;;;;;5054247;28;20040;-75
2022/10/08 10:19:07;;;;;;;8.77;2.17;;;;;;;;;;5054668;28;20032;-76
2022/10/08 10:21:40;;;;;;;7.88;2.25;;;;;;;;;;5054420;28;20108;-76
2022/10/08 10:24:24;;;;;;;7.72;2.40;;;;;;;;;;5054355;28;20111;-76
2022/10/08 10:26:54;;;;;;;8.70;2.45;;;;;;;;;;5054050;28;20017;-76
2022/10/08 10:29:23;;;;;;;14.73;2.58;;;;;;;;;;5054017;28;20036;-75
2022/10/08 10:31:58;;;;;;;8.93;2.55;;;;;;;;;;5054226;28;20398;-75
2022/10/08 10:34:25;;;;;;;6.10;2.30;;;;;;;;;;5053950;28;20050;-75
2022/10/08 10:37:06;;;;;;;8.60;2.72;;;;;;;;;;5053989;28;20033;-77
2022/10/08 10:39:44;;;;;;;8.07;2.80;;;;;;;;;;5054091;28;20096;-76
2022/10/08 10:42:29;;;;;;;4.38;2.35;;;;;;;;;;5053778;28;20124;-76
2022/10/08 10:45:07;;;;;;;12.38;2.40;;;;;;;;;;5052409;28;20025;-76
2022/10/08 10:47:32;;;;;;;8.13;2.33;;;;;;;;;;5054141;28;20032;-75
2022/10/08 10:50:00;;;;;;;5.80;2.75;;;;;;;;;;5053910;28;20020;-76
2022/10/08 10:52:53;;;;;;;8.35;2.75;;;;;;;;;;5053924;28;20047;-77
2022/10/08 10:55:28;;;;;;;5.68;2.10;;;;;;;;;;5053659;28;20044;-77
2022/10/08 10:58:01;;;;;;;6.20;2.15;;;;;;;;;;5053552;28;20398;-77
2022/10/08 11:00:41;;;;;;;9.95;2.05;;;;;;;;;;5052397;28;20029;-78
2022/10/08 11:03:25;;;;;;;8.93;1.80;;;;;;;;;;5053473;28;20044;-77
2022/10/08 11:06:01;;;;;;;8.67;1.50;;;;;;;;;;5053908;28;20029;-76
2022/10/08 11:08:37;;;;;;;5.70;1.67;;;;;;;;;;5053551;28;20036;-77
2022/10/08 11:11:31;;;;;;;8.27;1.95;;;;;;;;;;5053984;28;20017;-77
2022/10/08 11:13:59;;;;;;;6.78;1.65;;;;;;;;;;5052366;28;20031;-77
2022/10/08 11:16:44;;;;;;;5.65;1.63;;;;;;;;;;5053397;28;20036;-77
2022/10/08 11:19:41;;;;;;;7.60;1.70;;;;;;;;;;5053300;28;20021;-77
2022/10/08 11:22:31;;;;;;;3.70;1.60;;;;;;;;;;5053258;28;20112;-76
2022/10/08 11:25:12;;;;;;;8.77;1.63;;;;;;;;;;5052929;28;20025;-77
2022/10/08 11:27:56;;;;;;;10.20;1.67;;;;;;;;;;5053579;28;20032;-76
2022/10/08 11:30:44;;;;;;;4.30;1.52;;;;;;;;;;5053101;28;20100;-77
2022/10/08 11:33:12;;;;;;;6.28;1.70;;;;;;;;;;5042265;28;20037;-76
2022/10/08 11:36:24;;;;;;;3.78;1.50;;;;;;;;;;5052008;28;20106;-77
2022/10/08 11:39:19;;;;;;;3.28;1.33;;;;;;;;;;5043483;28;20044;-76
2022/10/08 11:42:12;;;;;;;6.57;1.63;;;;;;;;;;5053207;28;20497;-77
2022/10/08 11:44:38;;;;;;;7.35;2.20;;;;;;;;;;5052968;28;20021;-76
2022/10/08 11:47:34;;;;;;;5.88;1.70;;;;;;;;;;5053014;28;20029;-76
2022/10/08 11:50:00;;;;;;;9.20;2.05;;;;;;;;;;5052905;28;20032;-77
2022/10/08 11:52:30;;;;;;;2.42;1.27;;;;;;;;;;5051702;28;20029;-77
2022/10/08 11:54:56;;;;;;;3.22;1.60;;;;;;;;;;5053382;28;20386;-76
2022/10/08 11:57:30;;;;;;;12.40;6.32;;;;;;;;;;5052963;28;20537;-76
2022/10/08 12:00:00;;;;;;;12.23;7.40;;;;;;;;;;5052962;28;20478;-77
2022/10/08 12:02:49;;;;;;;12.05;6.70;;;;;;;;;;5053258;28;20021;-77
2022/10/08 12:05:29;;;;;;;4.18;1.77;;;;;;;;;;5053015;28;20087;-75
2022/10/08 12:07:57;;;;;;;4.85;1.52;;;;;;;;;;5052990;28;20025;-76
2022/10/08 12:10:38;;;;;;;4.18;1.60;;;;;;;;;;5051494;28;20024;-75
2022/10/08 12:13:09;;;;;;;5.03;1.48;;;;;;;;;;5053076;28;20021;-74
2022/10/08 12:15:37;;;;;;;5.78;1.70;;;;;;;;;;5052947;28;20029;-77
2022/10/08 12:18:08;;;;;;;4.28;1.23;;;;;;;;;;5052985;28;20044;-77
2022/10/08 12:20:36;;;;;;;3.80;1.20;;;;;;;;;;5053005;28;20021;-76
2022/10/08 12:23:03;;;;;;;6.60;1.65;;;;;;;;;;5052684;28;20044;-76
2022/10/08 12:25:31;;;;;;;4.90;1.23;;;;;;;;;;5051417;28;20111;-77
2022/10/08 12:28:19;;;;;;;6.28;1.30;;;;;;;;;;5052601;28;20079;-77
2022/10/08 12:30:53;;;;;;;3.22;1.30;;;;;;;;;;5052768;28;20028;-78
2022/10/08 12:33:19;;;;;;;3.92;1.20;;;;;;;;;;5053104;28;20359;-77
2022/10/08 12:36:06;;;;;;;5.55;1.38;;;;;;;;;;5052580;28;20040;-76
2022/10/08 12:38:40;;;;;;;4.90;1.35;;;;;;;;;;5051259;28;20072;-77
2022/10/08 12:41:28;;;;;;;3.75;1.20;;;;;;;;;;5055012;28;20024;-77
2022/10/08 12:44:44;;;;;;;1.83;1.00;;;;;;;;;;5056208;28;20474;-77
2022/10/08 12:47:28;;;;;;;2.40;1.00;;;;;;;;;;5030222;28;20037;-75
2022/10/08 12:49:56;;;;;;;5.30;1.10;;;;;;;;;;5056155;28;20060;-75
2022/10/08 12:52:22;;;;;;;6.32;1.90;;;;;;;;;;5055797;28;20437;-76
2022/10/08 12:54:51;;;;;;;3.42;1.00;;;;;;;;;;5055808;28;20021;-76
2022/10/08 12:57:21;;;;;;;4.60;1.27;;;;;;;;;;5055765;28;20029;-76
2022/10/08 12:59:47;;;;;;;8.63;1.10;;;;;;;;;;5055848;28;20029;-76
2022/10/08 13:02:31;;;;;;;5.07;1.50;;;;;;;;;;5055430;28;20025;-76
2022/10/08 13:04:57;;;;;;;3.75;1.60;;;;;;;;;;5055872;28;20195;-77
2022/10/08 13:07:30;;;;;;;4.05;1.30;;;;;;;;;;5055830;28;20367;-75
2022/10/08 13:09:58;;;;;;;8.52;1.17;;;;;;;;;;5055681;28;20103;-77
2022/10/08 13:12:24;;;;;;;4.15;1.20;;;;;;;;;;5055507;28;20031;-77
2022/10/08 13:15:02;;;;;;;4.65;0.95;;;;;;;;;;5055653;28;20013;-77
2022/10/08 13:17:30;;;;;;;5.30;1.13;;;;;;;;;;5054132;28;20049;-77
2022/10/08 13:20:14;;;;;;;6.20;1.15;;;;;;;;;;5053915;28;20525;-76
2022/10/08 13:22:40;;;;;;;3.20;1.10;;;;;;;;;;5055901;28;20033;-75
2022/10/08 13:25:38;;;;;;;6.32;1.13;;;;;;;;;;5055272;28;20389;-77
2022/10/08 13:28:08;;;;;;;2.53;0.98;;;;;;;;;;5054617;28;20053;-77
2022/10/08 13:30:33;;;;;;;3.60;1.25;;;;;;;;;;5055107;28;20486;-76
2022/10/08 13:33:03;;;;;;;6.75;1.20;;;;;;;;;;5055193;28;20055;-77
2022/10/08 13:35:29;;;;;;;3.25;1.02;;;;;;;;;;5055093;28;20016;-76
2022/10/08 13:37:55;;;;;;;4.30;1.13;;;;;;;;;;5053792;28;20035;-76
2022/10/08 13:40:22;;;;;;;6.13;1.00;;;;;;;;;;5054884;28;20025;-77
2022/10/08 13:42:54;;;;;;;4.00;1.05;;;;;;;;;;5054938;28;20124;-77
2022/10/08 13:45:21;;;;;;;4.68;1.00;;;;;;;;;;5054809;28;20025;-76
2022/10/08 13:47:48;;;;;;;3.92;1.00;;;;;;;;;;5054869;28;20541;-75
2022/10/08 13:50:13;;;;;;;5.82;1.33;;;;;;;;;;5055018;28;20402;-76
2022/10/08 13:52:45;;;;;;;2.67;0.80;;;;;;;;;;5052163;28;20025;-76
2022/10/08 13:55:31;;;;;;;3.95;1.00;;;;;;;;;;5053458;28;20017;-76
2022/10/08 13:58:00;;;;;;;9.65;1.02;;;;;;;;;;5054686;28;20029;-76
2022/10/08 14:00:26;;;;;;;5.18;1.10;;;;;;;;;;5054456;28;20073;-75
2022/10/08 14:02:52;;;;;;;3.80;0.90;;;;;;;;;;5054528;28;20047;-76
2022/10/08 14:05:18;;;;;;;2.53;0.85;;;;;;;;;;5054469;28;20486;-76
2022/10/08 14:07:45;;;;;;;4.70;1.00;;;;;;;;;;5053169;28;20027;-76
2022/10/08 14:10:12;;;;;;;3.83;1.00;;;;;;;;;;5054245;28;20112;-77
2022/10/08 14:12:37;;;;;;;2.78;1.00;;;;;;;;;;5054581;28;20021;-76
2022/10/08 14:15:03;;;;;;;3.55;0.98;;;;;;;;;;5054233;28;20021;-76
2022/10/08 14:17:29;;;;;;;4.55;0.95;;;;;;;;;;5054289;28;20031;-75
2022/10/08 14:19:54;;;;;;;2.15;0.90;;;;;;;;;;5053060;28;20025;-76
2022/10/08 14:22:20;;;;;;;8.27;1.55;;;;;;;;;;5054473;28;20047;-76
2022/10/08 14:24:45;;;;;;;6.78;1.23;;;;;;;;;;5054184;28;20504;-76
2022/10/08 14:27:10;;;;;;;8.32;1.33;;;;;;;;;;5054382;28;20438;-76
2022/10/08 14:29:36;;;;;;;5.00;1.10;;;;;;;;;;5054299;28;20029;-75
2022/10/08 14:32:02;;;;;;;6.47;1.20;;;;;;;;;;5054016;28;20103;-75
2022/10/08 14:34:28;;;;;;;4.75;1.35;;;;;;;;;;5053999;28;20398;-76
2022/10/08 14:36:54;;;;;;;5.97;1.50;;;;;;;;;;5054193;28;20025;-76
2022/10/08 14:39:23;;;;;;;5.05;1.20;;;;;;;;;;5053823;28;20478;-76
2022/10/08 14:41:48;;;;;;;4.93;1.50;;;;;;;;;;5053703;28;20063;-76
2022/10/08 14:44:15;;;;;;;5.50;1.50;;;;;;;;;;5052489;28;20521;-76
2022/10/08 14:46:43;;;;;;;7.30;1.55;;;;;;;;;;5054068;28;20039;-76
2022/10/08 14:49:09;;;;;;;3.80;1.33;;;;;;;;;;5052526;28;20063;-76
2022/10/08 14:51:40;;;;;;;3.25;1.45;;;;;;;;;;5053495;28;20060;-76
2022/10/08 14:54:06;;;;;;;6.70;1.60;;;;;;;;;;5052381;28;20013;-76